sensor_id;sensor_type;location;lat;lon;timestamp;P1;durP1;ratioP1;P2;durP2;ratioP2
8964;SDS011;4517;49.020;12.066;2023-08-12T00:01:13;24.23;;;21.93;;
8964;SDS011;4517;49.020;12.066;2023-08-12T00:03:39;25.97;;;20.70;;
8964;SDS011;4517;49.020;12.066;2023-08-12T00:06:05;22.97;;;20.97;;
8964;SDS011;4517;49.020;12.066;2023-08-12T00:08:31;23.00;;;20.90;;
8964;SDS011;4517;49.020;12.066;2023-08-12T00:10:57;26.97;;;22.03;;
8964;SDS011;4517;49.020;12.066;2023-08-12T00:13:23;23.63;;;21.23;;
8964;SDS011;4517;49.020;12.066;2023-08-12T00:15:49;23.47;;;21.43;;
8964;SDS011;4517;49.020;12.066;2023-08-12T00:18:15;23.60;;;21.50;;
8964;SDS011;4517;49.020;12.066;2023-08-12T00:20:42;22.70;;;20.63;;
8964;SDS011;4517;49.020;12.066;2023-08-12T00:23:08;22.97;;;20.97;;
8964;SDS011;4517;49.020;12.066;2023-08-12T00:25:34;24.30;;;22.00;;
8964;SDS011;4517;49.020;12.066;2023-08-12T00:28:00;22.63;;;20.63;;
8964;SDS011;4517;49.020;12.066;2023-08-12T00:30:26;22.57;;;20.87;;
8964;SDS011;4517;49.020;12.066;2023-08-12T00:32:52;24.40;;;22.10;;
8964;SDS011;4517;49.020;12.066;2023-08-12T00:35:18;23.57;;;21.37;;
8964;SDS011;4517;49.020;12.066;2023-08-12T00:37:44;23.10;;;20.67;;
8964;SDS011;4517;49.020;12.066;2023-08-12T00:40:10;22.37;;;20.43;;
8964;SDS011;4517;49.020;12.066;2023-08-12T00:42:36;22.33;;;20.50;;
8964;SDS011;4517;49.020;12.066;2023-08-12T00:45:02;22.50;;;20.50;;
8964;SDS011;4517;49.020;12.066;2023-08-12T00:47:29;21.73;;;20.03;;
8964;SDS011;4517;49.020;12.066;2023-08-12T00:49:55;21.23;;;19.57;;
8964;SDS011;4517;49.020;12.066;2023-08-12T00:52:23;22.63;;;20.60;;
8964;SDS011;4517;49.020;12.066;2023-08-12T00:54:49;22.63;;;20.10;;
8964;SDS011;4517;49.020;12.066;2023-08-12T00:57:15;22.07;;;20.20;;
8964;SDS011;4517;49.020;12.066;2023-08-12T00:59:41;22.40;;;20.60;;
8964;SDS011;4517;49.020;12.066;2023-08-12T01:02:10;21.93;;;20.10;;
8964;SDS011;4517;49.020;12.066;2023-08-12T01:04:37;23.03;;;21.03;;
8964;SDS011;4517;49.020;12.066;2023-08-12T01:07:03;22.50;;;20.23;;
8964;SDS011;4517;49.020;12.066;2023-08-12T01:09:29;21.53;;;19.83;;
8964;SDS011;4517;49.020;12.066;2023-08-12T01:12:15;22.10;;;20.27;;
8964;SDS011;4517;49.020;12.066;2023-08-12T01:14:51;22.40;;;20.67;;
8964;SDS011;4517;49.020;12.066;2023-08-12T01:17:18;21.73;;;19.93;;
8964;SDS011;4517;49.020;12.066;2023-08-12T01:19:44;22.27;;;20.20;;
8964;SDS011;4517;49.020;12.066;2023-08-12T01:22:11;20.57;;;18.90;;
8964;SDS011;4517;49.020;12.066;2023-08-12T01:24:38;23.60;;;21.07;;
8964;SDS011;4517;49.020;12.066;2023-08-12T01:27:05;22.67;;;20.60;;
8964;SDS011;4517;49.020;12.066;2023-08-12T01:29:32;23.10;;;20.30;;
8964;SDS011;4517;49.020;12.066;2023-08-12T01:32:04;23.73;;;21.33;;
8964;SDS011;4517;49.020;12.066;2023-08-12T01:34:44;22.33;;;20.50;;
8964;SDS011;4517;49.020;12.066;2023-08-12T01:37:11;22.87;;;20.80;;
8964;SDS011;4517;49.020;12.066;2023-08-12T01:39:39;22.40;;;20.40;;
8964;SDS011;4517;49.020;12.066;2023-08-12T01:42:05;22.83;;;21.00;;
8964;SDS011;4517;49.020;12.066;2023-08-12T01:44:31;22.47;;;20.30;;
8964;SDS011;4517;49.020;12.066;2023-08-12T01:46:59;21.23;;;19.53;;
8964;SDS011;4517;49.020;12.066;2023-08-12T01:49:26;22.93;;;21.00;;
8964;SDS011;4517;49.020;12.066;2023-08-12T01:51:52;22.00;;;20.03;;
8964;SDS011;4517;49.020;12.066;2023-08-12T01:54:18;22.43;;;20.53;;
8964;SDS011;4517;49.020;12.066;2023-08-12T01:56:44;22.33;;;20.47;;
8964;SDS011;4517;49.020;12.066;2023-08-12T01:59:10;22.37;;;20.47;;
8964;SDS011;4517;49.020;12.066;2023-08-12T02:01:36;23.33;;;21.13;;
8964;SDS011;4517;49.020;12.066;2023-08-12T02:04:02;22.70;;;20.57;;
8964;SDS011;4517;49.020;12.066;2023-08-12T02:06:28;23.50;;;21.40;;
8964;SDS011;4517;49.020;12.066;2023-08-12T02:08:54;22.10;;;20.30;;
8964;SDS011;4517;49.020;12.066;2023-08-12T02:11:19;22.93;;;21.07;;
8964;SDS011;4517;49.020;12.066;2023-08-12T02:13:45;23.57;;;21.57;;
8964;SDS011;4517;49.020;12.066;2023-08-12T02:16:11;22.77;;;20.67;;
8964;SDS011;4517;49.020;12.066;2023-08-12T02:18:37;22.40;;;20.60;;
8964;SDS011;4517;49.020;12.066;2023-08-12T02:21:03;21.57;;;19.87;;
8964;SDS011;4517;49.020;12.066;2023-08-12T02:23:29;23.00;;;21.00;;
8964;SDS011;4517;49.020;12.066;2023-08-12T02:25:55;21.90;;;20.20;;
8964;SDS011;4517;49.020;12.066;2023-08-12T02:28:21;23.17;;;20.77;;
8964;SDS011;4517;49.020;12.066;2023-08-12T02:30:47;23.20;;;21.03;;
8964;SDS011;4517;49.020;12.066;2023-08-12T02:33:13;23.50;;;21.60;;
8964;SDS011;4517;49.020;12.066;2023-08-12T02:35:39;21.90;;;19.90;;
8964;SDS011;4517;49.020;12.066;2023-08-12T02:38:05;22.03;;;20.23;;
8964;SDS011;4517;49.020;12.066;2023-08-12T02:40:31;22.37;;;20.57;;
8964;SDS011;4517;49.020;12.066;2023-08-12T02:42:57;23.40;;;21.30;;
8964;SDS011;4517;49.020;12.066;2023-08-12T02:45:23;23.77;;;21.50;;
8964;SDS011;4517;49.020;12.066;2023-08-12T02:47:49;24.77;;;22.13;;
8964;SDS011;4517;49.020;12.066;2023-08-12T02:50:15;23.80;;;21.80;;
8964;SDS011;4517;49.020;12.066;2023-08-12T02:52:41;24.63;;;22.23;;
8964;SDS011;4517;49.020;12.066;2023-08-12T02:55:07;22.80;;;20.83;;
8964;SDS011;4517;49.020;12.066;2023-08-12T02:57:33;23.50;;;21.40;;
8964;SDS011;4517;49.020;12.066;2023-08-12T02:59:59;23.67;;;21.63;;
8964;SDS011;4517;49.020;12.066;2023-08-12T03:02:25;23.27;;;21.07;;
8964;SDS011;4517;49.020;12.066;2023-08-12T03:04:51;25.63;;;23.40;;
8964;SDS011;4517;49.020;12.066;2023-08-12T03:07:18;24.23;;;21.87;;
8964;SDS011;4517;49.020;12.066;2023-08-12T03:09:44;23.03;;;21.07;;
8964;SDS011;4517;49.020;12.066;2023-08-12T03:12:10;23.80;;;21.80;;
8964;SDS011;4517;49.020;12.066;2023-08-12T03:14:36;22.67;;;20.87;;
8964;SDS011;4517;49.020;12.066;2023-08-12T03:17:02;22.60;;;20.80;;
8964;SDS011;4517;49.020;12.066;2023-08-12T03:19:28;21.20;;;19.40;;
8964;SDS011;4517;49.020;12.066;2023-08-12T03:21:54;22.07;;;20.30;;
8964;SDS011;4517;49.020;12.066;2023-08-12T03:24:20;23.70;;;21.20;;
8964;SDS011;4517;49.020;12.066;2023-08-12T03:26:46;23.70;;;21.70;;
8964;SDS011;4517;49.020;12.066;2023-08-12T03:29:12;23.00;;;21.10;;
8964;SDS011;4517;49.020;12.066;2023-08-12T03:31:38;24.70;;;22.60;;
8964;SDS011;4517;49.020;12.066;2023-08-12T03:34:04;24.03;;;21.90;;
8964;SDS011;4517;49.020;12.066;2023-08-12T03:36:30;24.07;;;22.13;;
8964;SDS011;4517;49.020;12.066;2023-08-12T03:38:56;23.87;;;21.67;;
8964;SDS011;4517;49.020;12.066;2023-08-12T03:41:22;24.47;;;22.07;;
8964;SDS011;4517;49.020;12.066;2023-08-12T03:43:48;24.83;;;22.43;;
8964;SDS011;4517;49.020;12.066;2023-08-12T03:46:14;25.47;;;22.80;;
8964;SDS011;4517;49.020;12.066;2023-08-12T03:48:40;23.33;;;21.33;;
8964;SDS011;4517;49.020;12.066;2023-08-12T03:51:05;23.80;;;21.60;;
8964;SDS011;4517;49.020;12.066;2023-08-12T03:53:31;24.77;;;22.63;;
8964;SDS011;4517;49.020;12.066;2023-08-12T03:55:57;23.57;;;21.60;;
8964;SDS011;4517;49.020;12.066;2023-08-12T03:58:23;24.27;;;22.20;;
8964;SDS011;4517;49.020;12.066;2023-08-12T04:00:49;24.13;;;21.93;;
8964;SDS011;4517;49.020;12.066;2023-08-12T04:03:15;24.70;;;22.60;;
8964;SDS011;4517;49.020;12.066;2023-08-12T04:05:51;24.50;;;22.40;;
8964;SDS011;4517;49.020;12.066;2023-08-12T04:08:23;25.13;;;22.50;;
8964;SDS011;4517;49.020;12.066;2023-08-12T04:10:50;25.13;;;22.93;;
8964;SDS011;4517;49.020;12.066;2023-08-12T04:13:16;23.73;;;21.83;;
8964;SDS011;4517;49.020;12.066;2023-08-12T04:15:42;24.90;;;22.40;;
8964;SDS011;4517;49.020;12.066;2023-08-12T04:18:08;23.10;;;21.00;;
8964;SDS011;4517;49.020;12.066;2023-08-12T04:20:34;24.47;;;22.23;;
8964;SDS011;4517;49.020;12.066;2023-08-12T04:23:00;23.80;;;21.77;;
8964;SDS011;4517;49.020;12.066;2023-08-12T04:25:26;23.37;;;21.27;;
8964;SDS011;4517;49.020;12.066;2023-08-12T04:27:52;23.13;;;21.23;;
8964;SDS011;4517;49.020;12.066;2023-08-12T04:30:18;22.73;;;20.83;;
8964;SDS011;4517;49.020;12.066;2023-08-12T04:32:44;20.23;;;18.73;;
8964;SDS011;4517;49.020;12.066;2023-08-12T04:35:10;22.17;;;20.37;;
8964;SDS011;4517;49.020;12.066;2023-08-12T04:37:36;21.27;;;19.67;;
8964;SDS011;4517;49.020;12.066;2023-08-12T04:40:02;19.43;;;18.03;;
8964;SDS011;4517;49.020;12.066;2023-08-12T04:42:30;19.60;;;18.20;;
8964;SDS011;4517;49.020;12.066;2023-08-12T04:44:56;19.93;;;17.87;;
8964;SDS011;4517;49.020;12.066;2023-08-12T04:47:22;20.97;;;19.20;;
8964;SDS011;4517;49.020;12.066;2023-08-12T04:49:48;19.80;;;18.40;;
8964;SDS011;4517;49.020;12.066;2023-08-12T04:52:14;20.80;;;19.07;;
8964;SDS011;4517;49.020;12.066;2023-08-12T04:54:40;21.37;;;19.77;;
8964;SDS011;4517;49.020;12.066;2023-08-12T04:57:06;20.70;;;19.13;;
8964;SDS011;4517;49.020;12.066;2023-08-12T04:59:32;20.80;;;19.10;;
8964;SDS011;4517;49.020;12.066;2023-08-12T05:01:58;20.67;;;18.97;;
8964;SDS011;4517;49.020;12.066;2023-08-12T05:04:24;20.33;;;18.63;;
8964;SDS011;4517;49.020;12.066;2023-08-12T05:06:50;21.13;;;19.13;;
8964;SDS011;4517;49.020;12.066;2023-08-12T05:09:16;20.97;;;19.27;;
8964;SDS011;4517;49.020;12.066;2023-08-12T05:11:42;19.67;;;18.07;;
8964;SDS011;4517;49.020;12.066;2023-08-12T05:14:08;26.03;;;23.30;;
8964;SDS011;4517;49.020;12.066;2023-08-12T05:16:34;20.20;;;18.50;;
8964;SDS011;4517;49.020;12.066;2023-08-12T05:19:00;22.60;;;20.60;;
8964;SDS011;4517;49.020;12.066;2023-08-12T05:21:26;19.30;;;17.63;;
8964;SDS011;4517;49.020;12.066;2023-08-12T05:23:52;20.10;;;18.40;;
8964;SDS011;4517;49.020;12.066;2023-08-12T05:26:18;18.90;;;17.50;;
8964;SDS011;4517;49.020;12.066;2023-08-12T05:28:45;19.57;;;18.03;;
8964;SDS011;4517;49.020;12.066;2023-08-12T05:31:11;19.63;;;17.60;;
8964;SDS011;4517;49.020;12.066;2023-08-12T05:33:37;20.67;;;16.93;;
8964;SDS011;4517;49.020;12.066;2023-08-12T05:36:03;18.03;;;16.80;;
8964;SDS011;4517;49.020;12.066;2023-08-12T05:38:29;17.70;;;16.20;;
8964;SDS011;4517;49.020;12.066;2023-08-12T05:40:55;18.83;;;17.30;;
8964;SDS011;4517;49.020;12.066;2023-08-12T05:43:21;18.80;;;17.50;;
8964;SDS011;4517;49.020;12.066;2023-08-12T05:45:47;19.33;;;17.93;;
8964;SDS011;4517;49.020;12.066;2023-08-12T05:48:14;25.63;;;23.97;;
8964;SDS011;4517;49.020;12.066;2023-08-12T05:50:40;18.30;;;17.00;;
8964;SDS011;4517;49.020;12.066;2023-08-12T05:53:06;18.93;;;17.30;;
8964;SDS011;4517;49.020;12.066;2023-08-12T05:55:33;18.27;;;17.07;;
8964;SDS011;4517;49.020;12.066;2023-08-12T05:57:59;17.77;;;16.50;;
8964;SDS011;4517;49.020;12.066;2023-08-12T06:00:25;17.90;;;16.60;;
8964;SDS011;4517;49.020;12.066;2023-08-12T06:02:51;18.90;;;17.30;;
8964;SDS011;4517;49.020;12.066;2023-08-12T06:05:17;18.77;;;17.27;;
8964;SDS011;4517;49.020;12.066;2023-08-12T06:07:43;18.60;;;17.30;;
8964;SDS011;4517;49.020;12.066;2023-08-12T06:10:09;19.37;;;17.57;;
8964;SDS011;4517;49.020;12.066;2023-08-12T06:12:35;19.17;;;17.67;;
8964;SDS011;4517;49.020;12.066;2023-08-12T06:15:01;18.90;;;17.60;;
8964;SDS011;4517;49.020;12.066;2023-08-12T06:17:27;19.23;;;17.83;;
8964;SDS011;4517;49.020;12.066;2023-08-12T06:19:53;19.60;;;18.30;;
8964;SDS011;4517;49.020;12.066;2023-08-12T06:22:19;18.90;;;17.60;;
8964;SDS011;4517;49.020;12.066;2023-08-12T06:24:45;19.90;;;18.40;;
8964;SDS011;4517;49.020;12.066;2023-08-12T06:27:11;19.53;;;17.93;;
8964;SDS011;4517;49.020;12.066;2023-08-12T06:29:37;19.30;;;17.80;;
8964;SDS011;4517;49.020;12.066;2023-08-12T06:32:03;18.97;;;17.70;;
8964;SDS011;4517;49.020;12.066;2023-08-12T06:34:29;19.37;;;17.80;;
8964;SDS011;4517;49.020;12.066;2023-08-12T06:36:55;19.83;;;18.33;;
8964;SDS011;4517;49.020;12.066;2023-08-12T06:39:21;19.97;;;18.47;;
8964;SDS011;4517;49.020;12.066;2023-08-12T06:41:47;20.50;;;18.87;;
8964;SDS011;4517;49.020;12.066;2023-08-12T06:44:13;20.70;;;18.90;;
8964;SDS011;4517;49.020;12.066;2023-08-12T06:46:39;19.63;;;18.13;;
8964;SDS011;4517;49.020;12.066;2023-08-12T06:49:05;19.80;;;18.40;;
8964;SDS011;4517;49.020;12.066;2023-08-12T06:51:31;19.47;;;17.97;;
8964;SDS011;4517;49.020;12.066;2023-08-12T06:53:57;18.60;;;17.30;;
8964;SDS011;4517;49.020;12.066;2023-08-12T06:56:23;23.50;;;21.90;;
8964;SDS011;4517;49.020;12.066;2023-08-12T06:58:49;19.83;;;18.27;;
8964;SDS011;4517;49.020;12.066;2023-08-12T07:01:15;20.03;;;18.40;;
8964;SDS011;4517;49.020;12.066;2023-08-12T07:03:41;18.60;;;17.20;;
8964;SDS011;4517;49.020;12.066;2023-08-12T07:06:07;20.13;;;18.57;;
8964;SDS011;4517;49.020;12.066;2023-08-12T07:08:33;21.10;;;18.90;;
8964;SDS011;4517;49.020;12.066;2023-08-12T07:10:58;19.73;;;18.27;;
8964;SDS011;4517;49.020;12.066;2023-08-12T07:13:24;20.70;;;18.50;;
8964;SDS011;4517;49.020;12.066;2023-08-12T07:15:50;29.43;;;26.73;;
8964;SDS011;4517;49.020;12.066;2023-08-12T07:18:16;18.60;;;17.20;;
8964;SDS011;4517;49.020;12.066;2023-08-12T07:20:42;19.00;;;17.70;;
8964;SDS011;4517;49.020;12.066;2023-08-12T07:23:08;19.93;;;18.43;;
8964;SDS011;4517;49.020;12.066;2023-08-12T07:25:34;19.20;;;17.50;;
8964;SDS011;4517;49.020;12.066;2023-08-12T07:28:00;20.37;;;18.80;;
8964;SDS011;4517;49.020;12.066;2023-08-12T07:30:26;19.10;;;17.80;;
8964;SDS011;4517;49.020;12.066;2023-08-12T07:32:52;19.93;;;18.10;;
8964;SDS011;4517;49.020;12.066;2023-08-12T07:35:18;19.13;;;17.83;;
8964;SDS011;4517;49.020;12.066;2023-08-12T07:37:44;19.97;;;18.30;;
8964;SDS011;4517;49.020;12.066;2023-08-12T07:40:10;19.80;;;17.97;;
8964;SDS011;4517;49.020;12.066;2023-08-12T07:42:37;19.30;;;17.90;;
8964;SDS011;4517;49.020;12.066;2023-08-12T07:45:03;19.40;;;17.80;;
8964;SDS011;4517;49.020;12.066;2023-08-12T07:47:30;19.17;;;17.67;;
8964;SDS011;4517;49.020;12.066;2023-08-12T07:49:57;19.17;;;17.80;;
8964;SDS011;4517;49.020;12.066;2023-08-12T07:52:23;18.20;;;17.00;;
8964;SDS011;4517;49.020;12.066;2023-08-12T07:54:49;18.60;;;17.30;;
8964;SDS011;4517;49.020;12.066;2023-08-12T07:57:15;19.20;;;17.60;;
8964;SDS011;4517;49.020;12.066;2023-08-12T07:59:41;19.23;;;17.73;;
8964;SDS011;4517;49.020;12.066;2023-08-12T08:02:07;19.27;;;17.40;;
8964;SDS011;4517;49.020;12.066;2023-08-12T08:04:33;18.90;;;17.60;;
8964;SDS011;4517;49.020;12.066;2023-08-12T08:07:00;17.70;;;16.50;;
8964;SDS011;4517;49.020;12.066;2023-08-12T08:09:26;19.07;;;17.77;;
8964;SDS011;4517;49.020;12.066;2023-08-12T08:11:52;18.73;;;17.33;;
8964;SDS011;4517;49.020;12.066;2023-08-12T08:14:18;19.20;;;17.40;;
8964;SDS011;4517;49.020;12.066;2023-08-12T08:16:44;19.03;;;17.30;;
8964;SDS011;4517;49.020;12.066;2023-08-12T08:19:10;18.80;;;17.20;;
8964;SDS011;4517;49.020;12.066;2023-08-12T08:21:36;19.50;;;18.00;;
8964;SDS011;4517;49.020;12.066;2023-08-12T08:24:02;18.77;;;17.20;;
8964;SDS011;4517;49.020;12.066;2023-08-12T08:26:28;17.60;;;16.33;;
8964;SDS011;4517;49.020;12.066;2023-08-12T08:28:54;18.23;;;16.70;;
8964;SDS011;4517;49.020;12.066;2023-08-12T08:31:20;17.43;;;16.03;;
8964;SDS011;4517;49.020;12.066;2023-08-12T08:33:46;19.20;;;17.80;;
8964;SDS011;4517;49.020;12.066;2023-08-12T08:36:12;18.70;;;17.20;;
8964;SDS011;4517;49.020;12.066;2023-08-12T08:38:38;19.20;;;17.40;;
8964;SDS011;4517;49.020;12.066;2023-08-12T08:41:05;18.53;;;17.20;;
8964;SDS011;4517;49.020;12.066;2023-08-12T08:43:31;19.13;;;17.57;;
8964;SDS011;4517;49.020;12.066;2023-08-12T08:45:58;19.10;;;17.67;;
8964;SDS011;4517;49.020;12.066;2023-08-12T08:48:24;19.33;;;17.90;;
8964;SDS011;4517;49.020;12.066;2023-08-12T08:50:50;19.70;;;18.37;;
8964;SDS011;4517;49.020;12.066;2023-08-12T08:53:17;18.83;;;17.60;;
8964;SDS011;4517;49.020;12.066;2023-08-12T08:55:43;18.50;;;17.20;;
8964;SDS011;4517;49.020;12.066;2023-08-12T08:58:10;17.40;;;16.27;;
8964;SDS011;4517;49.020;12.066;2023-08-12T09:00:36;18.50;;;17.20;;
8964;SDS011;4517;49.020;12.066;2023-08-12T09:03:03;18.67;;;17.37;;
8964;SDS011;4517;49.020;12.066;2023-08-12T09:05:30;18.03;;;16.60;;
8964;SDS011;4517;49.020;12.066;2023-08-12T09:07:56;18.77;;;17.30;;
8964;SDS011;4517;49.020;12.066;2023-08-12T09:10:24;17.70;;;16.60;;
8964;SDS011;4517;49.020;12.066;2023-08-12T09:12:52;18.40;;;17.00;;
8964;SDS011;4517;49.020;12.066;2023-08-12T09:15:19;17.80;;;16.70;;
8964;SDS011;4517;49.020;12.066;2023-08-12T09:17:45;19.13;;;17.70;;
8964;SDS011;4517;49.020;12.066;2023-08-12T09:20:11;19.10;;;17.50;;
8964;SDS011;4517;49.020;12.066;2023-08-12T09:22:37;18.30;;;17.10;;
8964;SDS011;4517;49.020;12.066;2023-08-12T09:25:03;19.23;;;17.73;;
8964;SDS011;4517;49.020;12.066;2023-08-12T09:27:30;19.33;;;17.60;;
8964;SDS011;4517;49.020;12.066;2023-08-12T09:29:56;19.00;;;17.60;;
8964;SDS011;4517;49.020;12.066;2023-08-12T09:32:22;22.70;;;21.20;;
8964;SDS011;4517;49.020;12.066;2023-08-12T09:34:55;23.23;;;21.33;;
8964;SDS011;4517;49.020;12.066;2023-08-12T09:37:22;18.97;;;17.20;;
8964;SDS011;4517;49.020;12.066;2023-08-12T09:39:48;18.73;;;17.07;;
8964;SDS011;4517;49.020;12.066;2023-08-12T09:42:15;19.07;;;17.67;;
8964;SDS011;4517;49.020;12.066;2023-08-12T09:44:41;17.63;;;16.33;;
8964;SDS011;4517;49.020;12.066;2023-08-12T09:47:08;17.90;;;16.70;;
8964;SDS011;4517;49.020;12.066;2023-08-12T09:49:38;19.30;;;17.70;;
8964;SDS011;4517;49.020;12.066;2023-08-12T09:52:04;18.43;;;17.13;;
8964;SDS011;4517;49.020;12.066;2023-08-12T09:54:31;19.17;;;17.77;;
8964;SDS011;4517;49.020;12.066;2023-08-12T09:56:58;19.20;;;17.80;;
8964;SDS011;4517;49.020;12.066;2023-08-12T09:59:26;23.17;;;21.47;;
8964;SDS011;4517;49.020;12.066;2023-08-12T10:01:53;18.20;;;16.60;;
8964;SDS011;4517;49.020;12.066;2023-08-12T10:04:21;18.63;;;17.07;;
8964;SDS011;4517;49.020;12.066;2023-08-12T10:06:47;20.33;;;18.20;;
8964;SDS011;4517;49.020;12.066;2023-08-12T10:09:17;19.50;;;18.20;;
8964;SDS011;4517;49.020;12.066;2023-08-12T10:11:43;19.27;;;17.97;;
8964;SDS011;4517;49.020;12.066;2023-08-12T10:14:10;19.10;;;17.70;;
8964;SDS011;4517;49.020;12.066;2023-08-12T10:16:36;19.93;;;18.53;;
8964;SDS011;4517;49.020;12.066;2023-08-12T10:19:02;18.23;;;16.97;;
8964;SDS011;4517;49.020;12.066;2023-08-12T10:21:30;19.37;;;18.03;;
8964;SDS011;4517;49.020;12.066;2023-08-12T10:23:57;18.83;;;17.53;;
8964;SDS011;4517;49.020;12.066;2023-08-12T10:26:27;19.37;;;18.03;;
8964;SDS011;4517;49.020;12.066;2023-08-12T10:28:54;19.17;;;17.77;;
8964;SDS011;4517;49.020;12.066;2023-08-12T10:31:21;19.60;;;17.90;;
8964;SDS011;4517;49.020;12.066;2023-08-12T10:33:47;19.77;;;18.30;;
8964;SDS011;4517;49.020;12.066;2023-08-12T10:36:16;18.97;;;17.67;;
8964;SDS011;4517;49.020;12.066;2023-08-12T10:38:44;19.00;;;17.63;;
8964;SDS011;4517;49.020;12.066;2023-08-12T10:41:14;19.17;;;17.97;;
8964;SDS011;4517;49.020;12.066;2023-08-12T10:44:00;19.10;;;17.80;;
8964;SDS011;4517;49.020;12.066;2023-08-12T10:46:34;19.90;;;18.60;;
8964;SDS011;4517;49.020;12.066;2023-08-12T10:54:28;19.10;;;17.70;;
8964;SDS011;4517;49.020;12.066;2023-08-12T11:04:50;18.03;;;16.80;;
8964;SDS011;4517;49.020;12.066;2023-08-12T11:07:20;19.63;;;18.33;;
8964;SDS011;4517;49.020;12.066;2023-08-12T11:09:50;19.30;;;18.10;;
8964;SDS011;4517;49.020;12.066;2023-08-12T11:12:17;19.20;;;17.90;;
8964;SDS011;4517;49.020;12.066;2023-08-12T11:14:47;19.17;;;17.77;;
8964;SDS011;4517;49.020;12.066;2023-08-12T11:17:14;18.07;;;16.70;;
8964;SDS011;4517;49.020;12.066;2023-08-12T11:19:41;18.00;;;16.70;;
8964;SDS011;4517;49.020;12.066;2023-08-12T11:22:07;18.73;;;17.50;;
8964;SDS011;4517;49.020;12.066;2023-08-12T11:24:34;17.70;;;16.47;;
8964;SDS011;4517;49.020;12.066;2023-08-12T11:27:01;18.00;;;16.60;;
8964;SDS011;4517;49.020;12.066;2023-08-12T11:29:28;18.23;;;16.97;;
8964;SDS011;4517;49.020;12.066;2023-08-12T11:31:54;19.30;;;17.40;;
8964;SDS011;4517;49.020;12.066;2023-08-12T11:34:20;18.70;;;17.40;;
8964;SDS011;4517;49.020;12.066;2023-08-12T11:36:46;18.20;;;16.90;;
8964;SDS011;4517;49.020;12.066;2023-08-12T11:39:12;20.53;;;18.70;;
8964;SDS011;4517;49.020;12.066;2023-08-12T11:41:38;19.30;;;17.67;;
8964;SDS011;4517;49.020;12.066;2023-08-12T11:44:04;18.53;;;17.20;;
8964;SDS011;4517;49.020;12.066;2023-08-12T11:46:34;17.97;;;16.67;;
8964;SDS011;4517;49.020;12.066;2023-08-12T11:49:00;22.10;;;18.43;;
8964;SDS011;4517;49.020;12.066;2023-08-12T11:51:26;19.83;;;18.37;;
8964;SDS011;4517;49.020;12.066;2023-08-12T11:53:52;19.30;;;17.60;;
8964;SDS011;4517;49.020;12.066;2023-08-12T11:56:18;18.33;;;17.13;;
8964;SDS011;4517;49.020;12.066;2023-08-12T11:58:48;19.10;;;17.30;;
8964;SDS011;4517;49.020;12.066;2023-08-12T12:01:15;20.20;;;18.80;;
8964;SDS011;4517;49.020;12.066;2023-08-12T12:03:41;17.80;;;16.70;;
8964;SDS011;4517;49.020;12.066;2023-08-12T12:06:07;18.00;;;16.80;;
8964;SDS011;4517;49.020;12.066;2023-08-12T12:08:33;17.90;;;16.60;;
8964;SDS011;4517;49.020;12.066;2023-08-12T12:11:06;18.37;;;17.07;;
8964;SDS011;4517;49.020;12.066;2023-08-12T12:13:32;18.70;;;17.23;;
8964;SDS011;4517;49.020;12.066;2023-08-12T12:15:58;19.30;;;18.10;;
8964;SDS011;4517;49.020;12.066;2023-08-12T12:18:24;18.30;;;16.70;;
8964;SDS011;4517;49.020;12.066;2023-08-12T12:20:57;17.60;;;16.30;;
8964;SDS011;4517;49.020;12.066;2023-08-12T12:23:27;17.93;;;16.57;;
8964;SDS011;4517;49.020;12.066;2023-08-12T12:26:00;18.43;;;16.70;;
8964;SDS011;4517;49.020;12.066;2023-08-12T12:28:26;18.10;;;16.90;;
8964;SDS011;4517;49.020;12.066;2023-08-12T12:30:52;18.07;;;16.67;;
8964;SDS011;4517;49.020;12.066;2023-08-12T12:33:18;18.33;;;16.70;;
8964;SDS011;4517;49.020;12.066;2023-08-12T12:35:44;17.63;;;16.20;;
8964;SDS011;4517;49.020;12.066;2023-08-12T12:38:10;18.80;;;17.40;;
8964;SDS011;4517;49.020;12.066;2023-08-12T12:40:36;17.57;;;16.30;;
8964;SDS011;4517;49.020;12.066;2023-08-12T12:43:05;18.33;;;16.60;;
8964;SDS011;4517;49.020;12.066;2023-08-12T12:45:31;18.60;;;17.10;;
8964;SDS011;4517;49.020;12.066;2023-08-12T12:47:57;19.03;;;17.73;;
8964;SDS011;4517;49.020;12.066;2023-08-12T12:50:23;19.97;;;18.40;;
8964;SDS011;4517;49.020;12.066;2023-08-12T12:52:49;22.87;;;18.10;;
8964;SDS011;4517;49.020;12.066;2023-08-12T12:55:15;18.67;;;17.37;;
8964;SDS011;4517;49.020;12.066;2023-08-12T12:57:41;19.40;;;17.80;;
8964;SDS011;4517;49.020;12.066;2023-08-12T13:00:07;18.63;;;17.23;;
8964;SDS011;4517;49.020;12.066;2023-08-12T13:02:36;18.97;;;17.37;;
8964;SDS011;4517;49.020;12.066;2023-08-12T13:05:02;22.87;;;16.43;;
8964;SDS011;4517;49.020;12.066;2023-08-12T13:07:28;18.37;;;17.00;;
8964;SDS011;4517;49.020;12.066;2023-08-12T13:09:54;19.10;;;17.70;;
8964;SDS011;4517;49.020;12.066;2023-08-12T13:12:20;18.20;;;16.67;;
8964;SDS011;4517;49.020;12.066;2023-08-12T13:14:46;19.27;;;17.73;;
8964;SDS011;4517;49.020;12.066;2023-08-12T13:17:12;20.90;;;19.40;;
8964;SDS011;4517;49.020;12.066;2023-08-12T13:19:38;19.70;;;18.40;;
8964;SDS011;4517;49.020;12.066;2023-08-12T13:22:04;20.70;;;18.77;;
8964;SDS011;4517;49.020;12.066;2023-08-12T13:24:30;20.33;;;18.60;;
8964;SDS011;4517;49.020;12.066;2023-08-12T13:26:56;19.37;;;17.87;;
8964;SDS011;4517;49.020;12.066;2023-08-12T13:29:22;18.90;;;17.60;;
8964;SDS011;4517;49.020;12.066;2023-08-12T13:31:48;19.60;;;18.10;;
8964;SDS011;4517;49.020;12.066;2023-08-12T13:34:14;18.93;;;17.60;;
8964;SDS011;4517;49.020;12.066;2023-08-12T13:36:41;19.50;;;17.87;;
8964;SDS011;4517;49.020;12.066;2023-08-12T13:39:07;19.10;;;17.60;;
8964;SDS011;4517;49.020;12.066;2023-08-12T13:41:33;19.50;;;18.20;;
8964;SDS011;4517;49.020;12.066;2023-08-12T13:43:59;18.47;;;17.17;;
8964;SDS011;4517;49.020;12.066;2023-08-12T13:46:25;18.87;;;17.57;;
8964;SDS011;4517;49.020;12.066;2023-08-12T13:48:51;19.03;;;17.53;;
8964;SDS011;4517;49.020;12.066;2023-08-12T13:51:18;19.10;;;17.70;;
8964;SDS011;4517;49.020;12.066;2023-08-12T13:53:44;18.27;;;16.87;;
8964;SDS011;4517;49.020;12.066;2023-08-12T13:56:10;19.47;;;17.90;;
8964;SDS011;4517;49.020;12.066;2023-08-12T13:58:36;18.07;;;16.87;;
8964;SDS011;4517;49.020;12.066;2023-08-12T14:01:02;17.77;;;16.43;;
8964;SDS011;4517;49.020;12.066;2023-08-12T14:03:28;18.47;;;17.17;;
8964;SDS011;4517;49.020;12.066;2023-08-12T14:05:55;18.07;;;16.87;;
8964;SDS011;4517;49.020;12.066;2023-08-12T14:08:21;19.60;;;18.30;;
8964;SDS011;4517;49.020;12.066;2023-08-12T14:10:47;18.80;;;17.60;;
8964;SDS011;4517;49.020;12.066;2023-08-12T14:13:15;19.27;;;17.97;;
8964;SDS011;4517;49.020;12.066;2023-08-12T14:15:41;18.37;;;17.17;;
8964;SDS011;4517;49.020;12.066;2023-08-12T14:18:07;18.43;;;17.23;;
8964;SDS011;4517;49.020;12.066;2023-08-12T14:20:33;18.93;;;17.63;;
8964;SDS011;4517;49.020;12.066;2023-08-12T14:22:59;18.50;;;17.20;;
8964;SDS011;4517;49.020;12.066;2023-08-12T14:25:25;18.30;;;16.97;;
8964;SDS011;4517;49.020;12.066;2023-08-12T14:27:51;18.50;;;16.80;;
8964;SDS011;4517;49.020;12.066;2023-08-12T14:30:17;19.13;;;17.50;;
8964;SDS011;4517;49.020;12.066;2023-08-12T14:32:44;17.63;;;16.43;;
8964;SDS011;4517;49.020;12.066;2023-08-12T14:35:10;18.27;;;17.07;;
8964;SDS011;4517;49.020;12.066;2023-08-12T14:37:36;18.30;;;16.40;;
8964;SDS011;4517;49.020;12.066;2023-08-12T14:40:02;17.57;;;16.47;;
8964;SDS011;4517;49.020;12.066;2023-08-12T14:42:29;18.07;;;16.87;;